Time;durP1;ratioP1;P1;durP2;ratioP2;P2;SDS_P1;SDS_P2;PMS_P1;PMS_P2;Temp;Humidity;BMP_temperature;BMP_pressure;BME280_temperature;BME280_humidity;BME280_pressure;Samples;Min_cycle;Max_cycle;Signal;HPM_P1;HPM_P2
2022/09/03 00:01:49;;;;;;;2.67;1.23;;;15.50;60.40;;;;;;5016937;28;20053;-80
2022/09/03 00:04:31;;;;;;;1.48;1.38;;;15.50;59.70;;;;;;5005794;28;20559;-80
2022/09/03 00:07:05;;;;;;;6.80;1.35;;;15.40;59.70;;;;;;5014423;28;20053;-81
2022/09/03 00:09:36;;;;;;;2.60;1.10;;;15.40;60.50;;;;;;5018227;28;20540;-80
2022/09/03 00:12:14;;;;;;;1.48;1.00;;;15.40;61.30;;;;;;5011860;28;20029;-80
2022/09/03 00:14:42;;;;;;;2.35;1.25;;;15.40;61.20;;;;;;5000645;28;20120;-80
2022/09/03 00:17:15;;;;;;;2.85;1.30;;;15.40;60.90;;;;;;5017146;28;20035;-80
2022/09/03 00:19:55;;;;;;;3.83;1.13;;;15.40;60.70;;;;;;5006808;28;20037;-80
2022/09/03 00:22:32;;;;;;;3.13;1.10;;;15.50;60.60;;;;;;5032909;28;20144;-80
2022/09/03 00:24:59;;;;;;;1.98;1.20;;;15.50;60.70;;;;;;5018198;28;20056;-80
2022/09/03 00:27:26;;;;;;;1.10;0.90;;;15.50;60.40;;;;;;5002794;28;20485;-80
2022/09/03 00:29:56;;;;;;;4.72;1.17;;;15.40;61.60;;;;;;5017114;28;20386;-80
2022/09/03 00:32:28;;;;;;;1.25;1.15;;;15.40;61.80;;;;;;5002392;28;20818;-80
2022/09/03 00:34:56;;;;;;;3.03;1.13;;;15.50;60.70;;;;;;4998287;28;20034;-80
2022/09/03 00:37:22;;;;;;;2.22;1.10;;;15.50;60.30;;;;;;5022363;28;20049;-80
2022/09/03 00:39:47;;;;;;;3.00;1.25;;;15.50;60.80;;;;;;5003293;28;20436;-80
2022/09/03 00:42:20;;;;;;;2.15;1.00;;;15.50;60.20;;;;;;5020667;28;20038;-80
2022/09/03 00:45:05;;;;;;;1.45;0.90;;;15.60;60.80;;;;;;5019237;28;20507;-79
2022/09/03 00:47:39;;;;;;;2.08;1.15;;;15.50;61.00;;;;;;5023666;28;20366;-80
2022/09/03 00:50:35;;;;;;;2.45;1.25;;;15.40;60.90;;;;;;5018640;28;20051;-80
2022/09/03 00:53:07;;;;;;;2.05;1.15;;;15.50;60.50;;;;;;5006244;28;20431;-80
2022/09/03 00:55:46;;;;;;;2.25;1.20;;;15.50;61.10;;;;;;5030056;28;20400;-80
2022/09/03 00:58:50;;;;;;;2.92;1.10;;;15.50;61.00;;;;;;5015734;28;20073;-80
2022/09/03 01:01:27;;;;;;;2.22;1.10;;;15.40;62.20;;;;;;5024716;28;20083;-81
2022/09/03 01:04:20;;;;;;;1.83;1.25;;;15.40;61.50;;;;;;5032983;28;20496;-80
2022/09/03 01:07:22;;;;;;;1.67;1.27;;;15.40;61.40;;;;;;5002432;28;20092;-80
2022/09/03 01:09:55;;;;;;;3.38;1.15;;;15.40;60.80;;;;;;4985819;28;20488;-80
2022/09/03 01:12:36;;;;;;;2.25;1.33;;;15.30;62.30;;;;;;5002266;28;20042;-80
2022/09/03 01:15:12;;;;;;;4.85;1.20;;;15.30;62.00;;;;;;5017364;28;20061;-80
2022/09/03 01:18:00;;;;;;;1.00;1.00;;;15.20;62.10;;;;;;5000140;28;20034;-80
2022/09/03 01:20:33;;;;;;;1.08;1.00;;;15.10;62.50;;;;;;5016354;28;20041;-81
2022/09/03 01:23:27;;;;;;;1.83;1.10;;;15.20;61.80;;;;;;5017929;28;20400;-80
2022/09/03 01:25:56;;;;;;;1.00;0.90;;;15.10;62.50;;;;;;5016162;28;20061;-80
2022/09/03 01:28:41;;;;;;;1.40;1.30;;;15.10;61.80;;;;;;5008170;28;20125;-80
2022/09/03 01:31:15;;;;;;;2.35;1.20;;;15.10;62.80;;;;;;5007109;28;20508;-80
2022/09/03 01:33:46;;;;;;;1.52;1.17;;;15.00;62.80;;;;;;5005001;28;20033;-80
2022/09/03 01:36:28;;;;;;;3.15;1.25;;;15.00;61.20;;;;;;5018723;28;20033;-80
2022/09/03 01:39:02;;;;;;;2.50;1.10;;;15.00;63.00;;;;;;5016630;28;20029;-80
2022/09/03 01:42:17;;;;;;;1.13;0.95;;;15.00;62.30;;;;;;5001377;28;20037;-81
2022/09/03 01:45:05;;;;;;;1.30;1.20;;;15.00;63.60;;;;;;5020786;28;20026;-81
2022/09/03 01:47:50;;;;;;;1.55;1.20;;;15.00;63.50;;;;;;5021252;28;20112;-80
2022/09/03 01:50:40;;;;;;;1.33;1.17;;;14.80;63.50;;;;;;5003315;28;20037;-81
2022/09/03 01:53:24;;;;;;;2.45;0.90;;;14.90;62.80;;;;;;5017920;28;20037;-80
2022/09/03 01:56:27;;;;;;;1.42;0.98;;;15.00;62.20;;;;;;5017766;28;20034;-80
2022/09/03 01:59:28;;;;;;;1.70;1.10;;;14.90;62.90;;;;;;5031006;28;20481;-79
2022/09/03 02:02:05;;;;;;;1.58;1.00;;;14.80;64.20;;;;;;5016737;28;20087;-81
2022/09/03 02:04:30;;;;;;;2.28;1.20;;;14.80;63.10;;;;;;4991662;28;20041;-80
2022/09/03 02:06:56;;;;;;;2.95;1.13;;;14.90;63.00;;;;;;5037178;28;20083;-80
2022/09/03 02:09:22;;;;;;;1.23;1.13;;;14.80;63.60;;;;;;4996457;28;20099;-81
2022/09/03 02:11:54;;;;;;;2.13;1.02;;;14.80;63.40;;;;;;5008835;28;20046;-81
2022/09/03 02:14:20;;;;;;;1.33;1.00;;;14.70;64.70;;;;;;5026507;28;20068;-80
2022/09/03 02:16:46;;;;;;;3.10;0.82;;;14.70;64.20;;;;;;5021727;28;21038;-81
2022/09/03 02:19:13;;;;;;;1.63;0.90;;;14.60;64.10;;;;;;5021669;28;20036;-81
2022/09/03 02:21:42;;;;;;;3.15;0.90;;;14.70;63.60;;;;;;5033313;28;20060;-81
2022/09/03 02:24:08;;;;;;;1.23;1.10;;;14.70;64.40;;;;;;5010272;28;20036;-81
2022/09/03 02:26:33;;;;;;;1.67;1.13;;;14.80;63.50;;;;;;5022791;28;20037;-81
2022/09/03 02:28:59;;;;;;;2.30;0.95;;;14.80;62.80;;;;;;5022910;28;20038;-81
2022/09/03 02:31:27;;;;;;;2.15;0.98;;;14.70;63.90;;;;;;4988723;28;20393;-79
2022/09/03 02:33:53;;;;;;;2.95;0.95;;;14.70;64.20;;;;;;5024474;28;20022;-80
2022/09/03 02:36:21;;;;;;;3.20;0.90;;;14.60;64.10;;;;;;4995659;28;20034;-81
2022/09/03 02:38:46;;;;;;;2.35;1.00;;;14.60;63.20;;;;;;5018294;28;20468;-80
2022/09/03 02:41:12;;;;;;;2.08;0.93;;;14.60;64.10;;;;;;5022155;28;20117;-81
2022/09/03 02:43:49;;;;;;;1.63;1.00;;;14.60;63.60;;;;;;5005884;28;20061;-81
2022/09/03 02:46:21;;;;;;;2.88;1.10;;;14.50;64.20;;;;;;5017183;28;20085;-81
2022/09/03 02:48:47;;;;;;;3.15;1.00;;;14.60;64.60;;;;;;4991556;28;20033;-81
2022/09/03 02:51:12;;;;;;;2.60;1.00;;;14.50;64.90;;;;;;5006499;28;20041;-79
2022/09/03 02:53:38;;;;;;;2.35;1.05;;;14.50;65.80;;;;;;5018735;28;20040;-76
2022/09/03 02:56:09;;;;;;;1.02;0.93;;;14.40;65.40;;;;;;5029421;28;20484;-77
2022/09/03 02:58:34;;;;;;;3.22;0.90;;;14.30;66.00;;;;;;5020324;28;20045;-77
2022/09/03 03:01:00;;;;;;;3.58;1.02;;;14.30;66.30;;;;;;5022627;28;20049;-76
2022/09/03 03:03:26;;;;;;;1.50;0.88;;;14.30;66.60;;;;;;5015593;28;20026;-77
2022/09/03 03:05:56;;;;;;;3.25;1.33;;;14.50;66.40;;;;;;5015586;28;20631;-76
2022/09/03 03:08:24;;;;;;;2.05;1.48;;;14.40;66.20;;;;;;5018598;28;20105;-76
2022/09/03 03:10:57;;;;;;;1.50;1.10;;;14.40;66.70;;;;;;5017818;28;20117;-76
2022/09/03 03:13:26;;;;;;;2.25;0.90;;;14.30;65.90;;;;;;5006586;28;20483;-75
2022/09/03 03:15:58;;;;;;;1.00;0.90;;;14.10;65.80;;;;;;5021078;28;20030;-75
2022/09/03 03:18:24;;;;;;;1.75;0.95;;;14.10;67.40;;;;;;5019412;28;20058;-75
2022/09/03 03:20:49;;;;;;;1.52;1.13;;;14.20;67.10;;;;;;5008309;28;20061;-75
2022/09/03 03:23:15;;;;;;;4.65;1.00;;;14.10;66.50;;;;;;5017647;28;20037;-76
2022/09/03 03:25:42;;;;;;;1.20;1.05;;;14.00;66.80;;;;;;5020225;28;20037;-75
2022/09/03 03:28:07;;;;;;;3.78;1.00;;;14.10;66.20;;;;;;5019408;28;20030;-75
2022/09/03 03:30:33;;;;;;;1.38;0.85;;;14.00;66.70;;;;;;5013440;28;20656;-75
2022/09/03 03:33:00;;;;;;;3.30;1.30;;;14.00;66.70;;;;;;5037197;28;20072;-75
2022/09/03 03:35:25;;;;;;;2.40;1.10;;;14.10;67.60;;;;;;5006608;28;20022;-78
2022/09/03 03:37:51;;;;;;;1.27;0.80;;;14.10;67.00;;;;;;5019704;28;20022;-75
2022/09/03 03:40:16;;;;;;;2.53;1.10;;;14.00;66.00;;;;;;5003443;28;20038;-74
2022/09/03 03:42:42;;;;;;;1.30;0.90;;;14.10;67.00;;;;;;5004221;28;20034;-78
2022/09/03 03:45:11;;;;;;;1.10;0.93;;;14.10;67.10;;;;;;5024434;28;20064;-75
2022/09/03 03:47:37;;;;;;;2.17;0.80;;;14.10;67.50;;;;;;5017358;28;20572;-75
2022/09/03 03:50:03;;;;;;;2.00;0.98;;;14.10;66.80;;;;;;5017179;28;20041;-75
2022/09/03 03:52:29;;;;;;;1.52;1.10;;;14.00;68.00;;;;;;5019516;28;20040;-75
2022/09/03 03:54:55;;;;;;;1.15;0.98;;;14.10;67.70;;;;;;5024044;28;20025;-75
2022/09/03 03:57:22;;;;;;;4.30;1.10;;;14.00;66.30;;;;;;5006981;28;20025;-76
2022/09/03 03:59:47;;;;;;;1.08;0.98;;;14.00;67.90;;;;;;5016574;28;20515;-76
2022/09/03 04:02:13;;;;;;;2.85;1.00;;;13.90;66.40;;;;;;5016847;28;20033;-76
2022/09/03 04:04:39;;;;;;;1.40;1.00;;;14.00;68.10;;;;;;5022334;28;20473;-74
2022/09/03 04:07:04;;;;;;;1.20;1.10;;;14.00;68.30;;;;;;5036169;28;20586;-76
2022/09/03 04:09:30;;;;;;;4.22;1.67;;;14.00;67.60;;;;;;5004182;28;20049;-76
2022/09/03 04:11:56;;;;;;;4.07;1.00;;;13.90;66.50;;;;;;5005864;28;20022;-77
2022/09/03 04:14:22;;;;;;;1.15;1.05;;;13.90;68.30;;;;;;5033541;28;20372;-76
2022/09/03 04:16:49;;;;;;;1.23;0.88;;;13.80;67.60;;;;;;5033321;28;20469;-76
2022/09/03 04:19:15;;;;;;;3.08;2.00;;;13.80;66.80;;;;;;5020952;28;20041;-76
2022/09/03 04:21:41;;;;;;;4.03;1.20;;;13.80;68.20;;;;;;5019543;28;20051;-76
2022/09/03 04:24:06;;;;;;;5.25;1.10;;;13.90;68.20;;;;;;5020326;28;20030;-75
2022/09/03 04:26:32;;;;;;;1.50;1.08;;;13.70;66.80;;;;;;5018720;28;20509;-76
2022/09/03 04:29:02;;;;;;;1.20;0.90;;;13.60;67.40;;;;;;5017096;28;20048;-76
2022/09/03 04:31:27;;;;;;;1.20;0.90;;;13.60;68.60;;;;;;5000965;28;20108;-77
2022/09/03 04:33:53;;;;;;;2.95;1.00;;;13.80;69.90;;;;;;5018233;28;20061;-76
2022/09/03 04:36:21;;;;;;;1.40;1.13;;;14.00;68.70;;;;;;4987686;28;20033;-76
2022/09/03 04:38:48;;;;;;;3.53;1.02;;;13.80;67.30;;;;;;5015041;28;20401;-76
2022/09/03 04:41:16;;;;;;;2.75;1.05;;;13.70;67.70;;;;;;5015705;28;20041;-76
2022/09/03 04:43:42;;;;;;;2.25;1.02;;;13.70;68.20;;;;;;5000572;28;20104;-76
2022/09/03 04:46:08;;;;;;;2.58;0.93;;;13.70;68.20;;;;;;5007583;28;20164;-76
2022/09/03 04:48:35;;;;;;;4.65;1.17;;;13.80;69.20;;;;;;5033149;28;20037;-76
2022/09/03 04:51:04;;;;;;;5.68;1.00;;;13.90;68.20;;;;;;5031803;28;20046;-76
2022/09/03 04:53:30;;;;;;;1.17;0.90;;;14.00;68.30;;;;;;5002754;28;20033;-77
2022/09/03 04:55:55;;;;;;;1.30;1.02;;;13.90;67.40;;;;;;5032911;28;20389;-77
2022/09/03 04:58:21;;;;;;;1.40;1.05;;;13.80;69.10;;;;;;5005479;28;20022;-76
2022/09/03 05:00:46;;;;;;;2.28;0.98;;;13.80;69.60;;;;;;5018684;28;20029;-76
2022/09/03 05:03:12;;;;;;;8.40;1.25;;;13.80;68.90;;;;;;5018407;28;20037;-76
2022/09/03 05:05:37;;;;;;;2.47;1.10;;;13.60;67.80;;;;;;5004142;28;20029;-77
2022/09/03 05:08:03;;;;;;;1.00;0.98;;;13.70;68.60;;;;;;5022279;28;20060;-76
2022/09/03 05:10:29;;;;;;;1.42;0.85;;;13.70;70.30;;;;;;5018135;28;20052;-77
2022/09/03 05:13:02;;;;;;;3.10;1.10;;;13.80;68.70;;;;;;5033628;28;20038;-77
2022/09/03 05:15:28;;;;;;;1.65;0.90;;;13.80;69.70;;;;;;5019433;28;20400;-77
2022/09/03 05:17:58;;;;;;;1.38;0.90;;;14.00;69.80;;;;;;5007788;28;20029;-77
2022/09/03 05:20:24;;;;;;;2.97;0.80;;;14.00;69.70;;;;;;5006553;28;20140;-77
2022/09/03 05:22:49;;;;;;;1.17;0.90;;;14.00;69.70;;;;;;5017997;28;20096;-77
2022/09/03 05:25:15;;;;;;;3.63;1.48;;;14.00;70.00;;;;;;4992092;28;20116;-77
2022/09/03 05:27:41;;;;;;;3.28;1.30;;;14.00;69.30;;;;;;5020918;28;20500;-77
2022/09/03 05:30:07;;;;;;;3.28;1.00;;;14.00;69.00;;;;;;5019374;28;20064;-77
2022/09/03 05:32:33;;;;;;;3.53;1.10;;;13.90;68.60;;;;;;5019843;28;20057;-77
2022/09/03 05:34:58;;;;;;;4.15;1.45;;;14.10;70.90;;;;;;5024412;28;20365;-78
2022/09/03 05:37:24;;;;;;;2.53;1.40;;;14.10;70.30;;;;;;5016580;28;20029;-77
2022/09/03 05:39:49;;;;;;;2.58;1.35;;;14.20;69.80;;;;;;5012229;28;20496;-77
2022/09/03 05:42:15;;;;;;;1.48;1.20;;;14.20;67.90;;;;;;5019401;28;20481;-76
2022/09/03 05:44:42;;;;;;;4.18;1.90;;;14.20;69.40;;;;;;5016111;28;20640;-76
2022/09/03 05:47:07;;;;;;;4.60;1.90;;;14.20;68.40;;;;;;5020949;28;20037;-77
2022/09/03 05:49:33;;;;;;;2.88;1.25;;;14.30;68.90;;;;;;5014685;28;20095;-77
2022/09/03 05:51:58;;;;;;;3.10;1.27;;;14.30;68.70;;;;;;5021029;28;20096;-77
2022/09/03 05:54:25;;;;;;;1.60;1.10;;;14.40;69.90;;;;;;5015521;28;20057;-77
2022/09/03 05:56:50;;;;;;;1.95;1.42;;;14.50;70.20;;;;;;5022333;28;20350;-77
2022/09/03 05:59:16;;;;;;;1.95;1.27;;;14.70;70.00;;;;;;5006500;28;20044;-77
2022/09/03 06:01:42;;;;;;;3.83;1.52;;;14.70;69.70;;;;;;5021305;28;20029;-77
2022/09/03 06:04:12;;;;;;;4.25;1.35;;;14.80;69.80;;;;;;5017722;28;20060;-78
2022/09/03 06:06:42;;;;;;;2.90;1.30;;;15.00;68.10;;;;;;5005267;28;20034;-77
2022/09/03 06:09:18;;;;;;;4.90;1.10;;;15.00;68.30;;;;;;5021830;28;20077;-78
2022/09/03 06:11:44;;;;;;;1.17;0.98;;;15.10;69.00;;;;;;5016674;28;20034;-77
2022/09/03 06:14:11;;;;;;;1.25;1.10;;;15.10;68.70;;;;;;5033634;28;20412;-77
2022/09/03 06:16:38;;;;;;;4.13;1.63;;;15.30;69.00;;;;;;5003096;28;20068;-77
2022/09/03 06:19:08;;;;;;;2.40;1.20;;;15.30;67.80;;;;;;5009748;28;20053;-77
2022/09/03 06:21:39;;;;;;;1.98;1.20;;;15.40;68.30;;;;;;5002706;28;20040;-78
2022/09/03 06:24:05;;;;;;;1.85;1.10;;;15.40;68.40;;;;;;5020284;28;20500;-77
2022/09/03 06:26:30;;;;;;;1.45;1.20;;;15.50;68.40;;;;;;5003202;28;20038;-77
2022/09/03 06:28:56;;;;;;;3.75;1.58;;;15.60;69.50;;;;;;5017679;28;20030;-77
2022/09/03 06:31:22;;;;;;;1.33;1.10;;;15.80;68.80;;;;;;5016953;28;20025;-77
2022/09/03 06:33:47;;;;;;;2.55;1.10;;;15.90;68.60;;;;;;5017270;28;20026;-77
2022/09/03 06:36:17;;;;;;;3.38;1.30;;;16.00;67.00;;;;;;5001913;28;20044;-77
2022/09/03 06:38:42;;;;;;;2.53;1.35;;;16.10;67.00;;;;;;5013378;28;20073;-77
2022/09/03 06:41:19;;;;;;;1.08;1.00;;;16.20;67.30;;;;;;5015629;28;20689;-74
2022/09/03 06:43:45;;;;;;;2.38;1.20;;;16.40;66.70;;;;;;5018844;28;20037;-76
2022/09/03 06:46:15;;;;;;;4.30;1.13;;;16.40;66.90;;;;;;4990067;28;20041;-75
2022/09/03 06:48:41;;;;;;;1.17;1.08;;;16.50;66.70;;;;;;5018512;28;20040;-75
2022/09/03 06:51:10;;;;;;;2.70;1.10;;;16.60;67.00;;;;;;5005702;28;20026;-75
2022/09/03 06:53:40;;;;;;;1.00;0.90;;;16.60;66.80;;;;;;5019789;28;20096;-75
2022/09/03 06:56:07;;;;;;;4.43;1.10;;;16.90;66.40;;;;;;5020565;28;20030;-75
2022/09/03 06:58:37;;;;;;;2.10;1.38;;;17.20;65.90;;;;;;5019594;28;20038;-77
2022/09/03 07:01:06;;;;;;;2.47;1.20;;;17.20;66.90;;;;;;5020712;28;20461;-76
2022/09/03 07:03:33;;;;;;;3.05;1.10;;;17.50;66.30;;;;;;5017519;28;20034;-77
2022/09/03 07:06:00;;;;;;;2.47;1.23;;;17.60;64.60;;;;;;5023452;28;20042;-78
2022/09/03 07:08:26;;;;;;;1.63;1.10;;;17.50;65.00;;;;;;5022165;28;20327;-77
2022/09/03 07:10:51;;;;;;;2.67;1.02;;;17.70;64.90;;;;;;5023912;28;20037;-77
2022/09/03 07:13:17;;;;;;;3.40;0.90;;;17.80;65.20;;;;;;5005271;28;20103;-78
2022/09/03 07:15:43;;;;;;;1.80;1.10;;;18.00;64.70;;;;;;5018997;28;20036;-76
2022/09/03 07:18:09;;;;;;;2.80;1.35;;;18.00;64.40;;;;;;5024967;28;20030;-77
2022/09/03 07:20:35;;;;;;;1.20;0.90;;;18.10;64.80;;;;;;5008991;28;20030;-77
2022/09/03 07:23:00;;;;;;;1.95;1.02;;;18.20;64.30;;;;;;5017027;28;20033;-76
2022/09/03 07:25:26;;;;;;;1.80;0.80;;;18.30;64.90;;;;;;5021512;28;20033;-77
2022/09/03 07:27:52;;;;;;;3.55;1.23;;;18.60;63.70;;;;;;5021326;28;20026;-76
2022/09/03 07:30:20;;;;;;;1.77;0.98;;;18.80;63.60;;;;;;5016353;28;20038;-78
2022/09/03 07:32:46;;;;;;;2.33;1.00;;;18.90;63.20;;;;;;5019749;28;20037;-77
2022/09/03 07:35:12;;;;;;;3.88;1.10;;;18.90;63.30;;;;;;5016854;28;20033;-78
2022/09/03 07:37:41;;;;;;;1.05;0.95;;;19.10;62.50;;;;;;5008179;28;20116;-78
2022/09/03 07:40:09;;;;;;;5.63;1.27;;;19.30;62.00;;;;;;5003810;28;20124;-78
2022/09/03 07:42:37;;;;;;;1.40;0.73;;;19.50;61.20;;;;;;5019550;28;20037;-78
2022/09/03 07:45:09;;;;;;;2.47;1.20;;;20.00;60.90;;;;;;5025213;28;20577;-78
2022/09/03 07:47:35;;;;;;;1.25;1.00;;;19.90;60.30;;;;;;5020401;28;20492;-78
2022/09/03 07:50:02;;;;;;;2.65;0.90;;;19.90;60.90;;;;;;5039260;28;20544;-76
2022/09/03 07:52:28;;;;;;;1.00;0.82;;;19.70;61.40;;;;;;5009569;28;20060;-78
2022/09/03 07:54:53;;;;;;;0.60;0.60;;;20.00;61.00;;;;;;5020733;28;20072;-77
2022/09/03 07:57:20;;;;;;;2.25;1.10;;;20.10;60.80;;;;;;5002741;28;20042;-77
2022/09/03 07:59:46;;;;;;;2.08;0.95;;;20.40;60.70;;;;;;5016945;28;20371;-76
2022/09/03 08:02:12;;;;;;;2.45;1.20;;;20.40;59.90;;;;;;5018767;28;20045;-78
2022/09/03 08:04:39;;;;;;;3.50;0.98;;;20.60;60.50;;;;;;5019351;28;20037;-76
2022/09/03 08:07:05;;;;;;;2.53;1.63;;;20.50;60.90;;;;;;5016628;28;20038;-77
2022/09/03 08:09:31;;;;;;;3.28;0.90;;;20.80;60.40;;;;;;4998380;28;20042;-77
2022/09/03 08:11:57;;;;;;;1.35;0.90;;;21.20;59.80;;;;;;5008862;28;20030;-77
2022/09/03 08:14:23;;;;;;;1.10;0.77;;;21.20;59.40;;;;;;4991000;28;20030;-78
2022/09/03 08:16:48;;;;;;;1.65;0.98;;;21.50;59.10;;;;;;5018186;28;20064;-77
2022/09/03 08:19:15;;;;;;;1.00;0.80;;;22.10;57.70;;;;;;5017734;28;20045;-77
2022/09/03 08:21:41;;;;;;;1.98;1.02;;;22.10;57.40;;;;;;5002040;28;20041;-78
2022/09/03 08:24:07;;;;;;;0.90;0.90;;;22.10;58.20;;;;;;5020778;28;20040;-77
2022/09/03 08:26:34;;;;;;;3.15;1.23;;;22.50;57.00;;;;;;5024569;28;20044;-77
2022/09/03 08:29:00;;;;;;;1.00;0.77;;;22.90;56.10;;;;;;5002266;28;20141;-77
2022/09/03 08:31:26;;;;;;;1.20;0.88;;;22.80;56.80;;;;;;5018258;28;20575;-78
2022/09/03 08:33:54;;;;;;;2.08;0.90;;;22.90;56.30;;;;;;5035739;28;20488;-77
2022/09/03 08:36:21;;;;;;;3.92;1.08;;;23.10;56.30;;;;;;5000764;28;20571;-77
2022/09/03 08:38:48;;;;;;;0.90;0.70;;;23.40;55.60;;;;;;5020795;28;20026;-77
2022/09/03 08:41:47;;;;;;;1.48;1.38;;;23.80;55.00;;;;;;5017618;28;20037;-77
2022/09/03 08:44:46;;;;;;;2.97;1.70;;;23.80;54.50;;;;;;5008581;28;20505;-77
2022/09/03 08:47:19;;;;;;;1.95;0.85;;;24.10;54.20;;;;;;5013492;28;20029;-77
2022/09/03 08:50:03;;;;;;;1.63;0.82;;;24.20;54.80;;;;;;5019774;28;20122;-78
2022/09/03 08:52:32;;;;;;;2.28;1.00;;;24.70;53.40;;;;;;5003356;28;20373;-77
2022/09/03 08:55:19;;;;;;;3.78;1.25;;;24.50;53.90;;;;;;5022840;28;20413;-78
2022/09/03 08:57:47;;;;;;;1.88;1.08;;;24.00;55.10;;;;;;5014966;28;20034;-78
2022/09/03 09:00:14;;;;;;;1.42;1.02;;;25.00;53.40;;;;;;5020112;28;20052;-78
2022/09/03 09:03:06;;;;;;;2.60;1.10;;;24.90;53.20;;;;;;5021871;28;20034;-77
2022/09/03 09:05:50;;;;;;;4.35;1.20;;;25.10;53.50;;;;;;5006857;28;20041;-77
2022/09/03 09:08:39;;;;;;;1.35;0.90;;;25.30;52.60;;;;;;5032133;28;20542;-77
2022/09/03 09:11:12;;;;;;;4.20;1.10;;;25.80;51.90;;;;;;5016444;28;21732;-78
2022/09/03 09:14:11;;;;;;;1.98;1.10;;;25.90;52.10;;;;;;5002052;28;20064;-77
2022/09/03 09:17:18;;;;;;;2.70;1.00;;;26.30;50.70;;;;;;5002166;28;20590;-79
2022/09/03 09:20:01;;;;;;;1.00;0.85;;;25.80;51.90;;;;;;5014728;28;20022;-78
2022/09/03 09:22:38;;;;;;;2.08;1.05;;;26.20;50.80;;;;;;5020979;28;20501;-78
2022/09/03 09:25:18;;;;;;;0.82;0.65;;;26.30;50.80;;;;;;5008456;28;20037;-77
2022/09/03 09:28:00;;;;;;;1.27;0.98;;;26.60;50.40;;;;;;4986085;28;20037;-78
2022/09/03 09:30:30;;;;;;;1.92;1.00;;;26.30;51.00;;;;;;5009157;28;20072;-77
2022/09/03 09:32:56;;;;;;;2.22;0.90;;;25.60;53.00;;;;;;5016857;28;20571;-77
2022/09/03 09:35:22;;;;;;;9.23;1.40;;;25.20;54.30;;;;;;5009043;28;20037;-77
2022/09/03 09:37:47;;;;;;;1.38;0.90;;;25.70;52.90;;;;;;5018314;28;20036;-77
2022/09/03 09:40:23;;;;;;;1.17;1.00;;;26.20;52.70;;;;;;5021386;28;20038;-78
2022/09/03 09:42:49;;;;;;;3.30;1.10;;;26.40;51.40;;;;;;5007380;28;20029;-79
2022/09/03 09:45:15;;;;;;;2.25;1.20;;;26.50;51.40;;;;;;5020679;28;20041;-78
2022/09/03 09:47:41;;;;;;;2.10;0.98;;;26.50;52.00;;;;;;5008523;28;20030;-78
2022/09/03 09:50:16;;;;;;;1.40;0.90;;;27.00;50.70;;;;;;5033904;28;20033;-80
2022/09/03 09:52:44;;;;;;;1.20;1.10;;;26.80;50.70;;;;;;4984634;28;20199;-79
2022/09/03 09:55:14;;;;;;;4.75;1.48;;;26.60;51.40;;;;;;5018225;28;20029;-78
2022/09/03 09:57:40;;;;;;;0.90;0.85;;;26.40;51.40;;;;;;5000451;28;20588;-78
2022/09/03 10:00:11;;;;;;;5.65;1.10;;;26.40;52.10;;;;;;5034465;28;20037;-78
2022/09/03 10:02:40;;;;;;;3.33;1.00;;;26.80;51.00;;;;;;5010728;28;20107;-78
2022/09/03 10:05:35;;;;;;;1.23;0.90;;;26.60;51.50;;;;;;4990026;28;20045;-78
2022/09/03 10:08:06;;;;;;;2.67;1.15;;;27.30;49.30;;;;;;5021261;28;20489;-78
2022/09/03 10:10:36;;;;;;;4.43;1.08;;;27.60;49.00;;;;;;5005860;28;20085;-78
2022/09/03 10:13:08;;;;;;;2.55;0.80;;;27.10;50.30;;;;;;5014704;28;20038;-78
2022/09/03 10:15:40;;;;;;;4.32;1.05;;;27.40;49.60;;;;;;5018500;28;20053;-78
2022/09/03 10:18:27;;;;;;;1.63;1.13;;;27.90;49.20;;;;;;5017134;28;20037;-78
2022/09/03 10:21:30;;;;;;;1.40;0.95;;;27.40;51.10;;;;;;5015667;28;20092;-78
2022/09/03 10:24:05;;;;;;;1.75;1.20;;;27.10;52.10;;;;;;5009375;28;20098;-79
2022/09/03 10:26:31;;;;;;;1.17;0.95;;;27.50;50.90;;;;;;5031500;28;20523;-78
2022/09/03 10:28:59;;;;;;;3.80;1.23;;;27.20;53.60;;;;;;5022710;28;20037;-78
2022/09/03 10:32:01;;;;;;;1.75;0.90;;;27.60;51.00;;;;;;5007191;28;20334;-78
2022/09/03 10:34:57;;;;;;;1.90;1.20;;;28.50;48.20;;;;;;5003647;28;20037;-78
2022/09/03 10:37:25;;;;;;;2.83;1.20;;;29.00;47.30;;;;;;4991937;28;20098;-78
2022/09/03 10:39:54;;;;;;;3.40;0.85;;;28.20;51.50;;;;;;5023017;28;20032;-78
2022/09/03 10:42:36;;;;;;;1.85;1.20;;;27.70;51.10;;;;;;5024488;28;20434;-78
2022/09/03 10:45:08;;;;;;;3.03;0.93;;;28.50;49.00;;;;;;5010465;28;20022;-79
2022/09/03 10:47:40;;;;;;;2.47;1.02;;;29.20;48.00;;;;;;5033052;28;20041;-79
2022/09/03 10:50:18;;;;;;;2.47;1.00;;;29.10;47.40;;;;;;5023558;28;20059;-79
2022/09/03 10:53:04;;;;;;;1.95;1.08;;;29.40;46.90;;;;;;5022237;28;20057;-79
2022/09/03 10:55:45;;;;;;;1.55;1.10;;;29.30;47.40;;;;;;5021447;28;20075;-80
2022/09/03 10:58:38;;;;;;;3.00;1.10;;;28.50;50.50;;;;;;5022496;28;20520;-80
2022/09/03 11:01:27;;;;;;;4.15;1.00;;;29.10;47.30;;;;;;5009748;28;20034;-80
2022/09/03 11:04:13;;;;;;;1.23;1.13;;;29.70;47.00;;;;;;5021032;28;20038;-80
2022/09/03 11:06:47;;;;;;;1.17;1.00;;;29.30;47.50;;;;;;5023940;28;20172;-81
2022/09/03 11:09:45;;;;;;;1.30;0.90;;;29.60;47.20;;;;;;4993249;28;20486;-80
2022/09/03 11:12:21;;;;;;;1.88;1.00;;;30.10;46.10;;;;;;4995973;28;20030;-80
2022/09/03 11:14:58;;;;;;;2.25;1.02;;;30.20;45.50;;;;;;5013797;28;20133;-81
2022/09/03 11:17:27;;;;;;;1.60;1.27;;;30.20;45.60;;;;;;4993845;28;20038;-81
2022/09/03 11:20:03;;;;;;;2.45;1.73;;;30.00;45.80;;;;;;5020453;28;20036;-81
2022/09/03 11:22:29;;;;;;;0.95;0.93;;;29.70;46.10;;;;;;5014897;28;20482;-80
2022/09/03 11:24:57;;;;;;;3.95;1.80;;;29.70;46.50;;;;;;5013887;28;20184;-81
2022/09/03 11:27:35;;;;;;;3.00;1.30;;;30.10;46.20;;;;;;5004641;28;20033;-81
2022/09/03 11:30:07;;;;;;;3.60;1.08;;;30.00;46.50;;;;;;5018119;28;20585;-81
2022/09/03 11:32:41;;;;;;;2.58;0.90;;;29.70;46.20;;;;;;5009756;28;20052;-81
2022/09/03 11:35:37;;;;;;;2.20;0.90;;;29.90;45.80;;;;;;5035801;28;20068;-81
2022/09/03 11:38:27;;;;;;;5.25;1.30;;;29.80;46.00;;;;;;4999632;28;20106;-81
2022/09/03 11:41:13;;;;;;;1.55;1.10;;;29.70;46.40;;;;;;5010661;28;20033;-81
2022/09/03 11:43:39;;;;;;;1.98;1.13;;;29.90;46.40;;;;;;5007930;28;20021;-81
2022/09/03 11:46:12;;;;;;;2.70;0.95;;;29.50;47.50;;;;;;5022584;28;20835;-81
2022/09/03 11:48:42;;;;;;;0.90;0.90;;;29.90;46.10;;;;;;5032580;28;20061;-81
2022/09/03 11:51:34;;;;;;;1.15;0.90;;;30.10;45.60;;;;;;5021423;28;20544;-81
2022/09/03 11:54:05;;;;;;;2.08;1.35;;;29.70;46.70;;;;;;5008194;28;20788;-81
2022/09/03 11:56:31;;;;;;;1.15;1.05;;;30.00;45.50;;;;;;4995447;28;20025;-81
2022/09/03 11:59:01;;;;;;;1.08;0.90;;;30.10;45.50;;;;;;5021812;28;20021;-82
2022/09/03 12:01:27;;;;;;;2.20;0.88;;;30.20;45.20;;;;;;5004041;28;20030;-81
2022/09/03 12:04:03;;;;;;;1.77;1.02;;;30.20;45.40;;;;;;5020168;28;20100;-81
2022/09/03 12:07:00;;;;;;;1.83;1.10;;;30.10;45.40;;;;;;5008110;28;20095;-82
2022/09/03 12:09:41;;;;;;;2.72;0.75;;;30.10;45.40;;;;;;5025386;28;20112;-82
2022/09/03 12:13:06;;;;;;;1.08;0.95;;;30.00;45.50;;;;;;5009802;28;20031;-83
2022/09/03 12:16:09;;;;;;;1.73;1.20;;;30.10;45.10;;;;;;4625823;28;9999784;-83
2022/09/03 12:18:36;;;;;;;1.52;1.25;;;29.90;45.60;;;;;;4969034;28;20686;-82
2022/09/03 12:21:07;;;;;;;1.05;0.90;;;29.70;46.50;;;;;;5007703;28;20096;-82
2022/09/03 12:23:54;;;;;;;1.15;1.00;;;29.70;46.20;;;;;;4963395;28;20048;-82
2022/09/03 12:26:23;;;;;;;3.28;1.02;;;29.70;45.90;;;;;;5019739;28;20037;-82
2022/09/03 12:29:10;;;;;;;2.22;1.25;;;29.50;47.10;;;;;;5017417;28;20062;-83
2022/09/03 12:31:43;;;;;;;3.80;1.67;;;29.70;45.70;;;;;;5014956;28;20060;-83
2022/09/03 12:34:11;;;;;;;4.35;1.42;;;29.90;45.50;;;;;;5000328;28;20029;-81
2022/09/03 12:36:39;;;;;;;1.23;0.80;;;30.00;45.60;;;;;;5015340;28;20445;-82
2022/09/03 12:39:15;;;;;;;1.38;1.10;;;30.20;45.30;;;;;;4996895;28;20488;-82
2022/09/03 12:41:52;;;;;;;2.20;1.15;;;29.80;46.00;;;;;;5003255;28;20525;-80
2022/09/03 12:44:27;;;;;;;1.77;1.20;;;29.30;47.30;;;;;;5003656;28;20387;-83
2022/09/03 12:47:08;;;;;;;0.98;0.98;;;29.40;47.30;;;;;;5004697;28;20029;-83
2022/09/03 12:49:41;;;;;;;2.22;1.10;;;29.30;48.10;;;;;;5006639;28;20113;-82
2022/09/03 12:52:19;;;;;;;1.30;1.20;;;29.00;49.10;;;;;;4998023;28;20500;-83
2022/09/03 12:55:07;;;;;;;1.85;1.58;;;29.30;47.90;;;;;;5035829;28;20063;-82
2022/09/03 12:58:11;;;;;;;3.08;1.30;;;30.00;46.90;;;;;;5021290;28;20477;-82
2022/09/03 13:00:41;;;;;;;2.15;1.67;;;29.80;47.40;;;;;;4990077;28;20033;-82
2022/09/03 13:03:23;;;;;;;2.03;1.10;;;29.80;47.30;;;;;;4996424;28;20037;-82
2022/09/03 13:05:51;;;;;;;1.45;1.20;;;29.60;47.40;;;;;;5008162;28;20522;-82
2022/09/03 13:08:44;;;;;;;1.48;1.20;;;29.70;47.20;;;;;;4989885;28;20034;-82
2022/09/03 13:11:10;;;;;;;4.60;1.25;;;29.80;46.90;;;;;;5008337;28;20489;-81
2022/09/03 13:13:36;;;;;;;3.00;1.40;;;29.70;46.20;;;;;;5013656;28;20061;-82
2022/09/03 13:16:46;;;;;;;1.80;1.10;;;29.60;46.70;;;;;;5009307;28;20066;-82